Time;durP1;ratioP1;P1;durP2;ratioP2;P2;SDS_P1;SDS_P2;PMS_P1;PMS_P2;Temp;Humidity;BMP_temperature;BMP_pressure;BME280_temperature;BME280_humidity;BME280_pressure;Samples;Min_cycle;Max_cycle;Signal;HPM_P1;HPM_P2
2021/08/24 00:00:50;;;;;;;2.40;1.23;;;16.20;99.90;;;;;;5058212;28;20051;-89
2021/08/24 00:03:17;;;;;;;3.20;1.33;;;16.20;99.90;;;;;;5057968;28;20092;-89
2021/08/24 00:05:43;;;;;;;2.38;1.30;;;16.10;99.90;;;;;;5056785;28;20094;-87
2021/08/24 00:08:09;;;;;;;2.05;1.15;;;16.10;99.90;;;;;;5057301;28;20028;-87
2021/08/24 00:10:49;;;;;;;2.72;1.20;;;16.10;99.90;;;;;;5056861;28;20020;-89
2021/08/24 00:13:16;;;;;;;2.22;1.10;;;16.10;99.90;;;;;;5056786;28;20028;-89
2021/08/24 00:15:42;;;;;;;1.75;1.00;;;16.10;99.90;;;;;;5056926;28;20115;-88
2021/08/24 00:18:09;;;;;;;2.53;1.20;;;16.10;99.90;;;;;;5074681;28;20029;-87
2021/08/24 00:20:36;;;;;;;2.65;1.23;;;16.10;99.90;;;;;;5056842;28;20153;-87
2021/08/24 00:23:06;;;;;;;3.35;1.27;;;16.00;99.90;;;;;;5056869;28;20020;-88
2021/08/24 00:25:33;;;;;;;1.58;1.13;;;16.00;99.90;;;;;;5056626;28;20078;-87
2021/08/24 00:27:58;;;;;;;3.50;1.45;;;16.00;99.90;;;;;;5056860;28;20468;-88
2021/08/24 00:30:24;;;;;;;2.72;1.60;;;16.00;99.90;;;;;;5057232;28;20020;-89
2021/08/24 00:32:50;;;;;;;2.50;1.45;;;15.90;99.90;;;;;;5057085;28;20020;-89
2021/08/24 00:35:16;;;;;;;3.17;1.30;;;16.00;99.90;;;;;;5056975;28;20040;-89
2021/08/24 00:37:42;;;;;;;1.60;1.05;;;15.90;99.90;;;;;;5057303;28;20036;-89
2021/08/24 00:40:10;;;;;;;3.05;1.30;;;15.90;99.90;;;;;;5056431;28;20074;-88
2021/08/24 00:42:37;;;;;;;2.55;1.13;;;15.90;99.90;;;;;;5057388;28;20034;-88
2021/08/24 00:45:07;;;;;;;3.80;1.27;;;15.90;99.90;;;;;;5055197;28;20124;-88
2021/08/24 00:47:34;;;;;;;2.45;1.20;;;15.90;99.90;;;;;;5055619;28;20021;-89
2021/08/24 00:50:13;;;;;;;3.17;1.23;;;15.80;99.90;;;;;;5056325;28;20020;-88
2021/08/24 00:52:39;;;;;;;4.22;1.33;;;15.90;99.90;;;;;;5055488;28;20027;-89
2021/08/24 00:55:06;;;;;;;2.75;1.33;;;15.80;99.90;;;;;;5056108;28;20025;-89
2021/08/24 00:57:32;;;;;;;2.92;1.25;;;15.80;99.90;;;;;;5053839;28;20025;-89
2021/08/24 00:59:58;;;;;;;2.30;1.25;;;15.80;99.90;;;;;;5056314;28;20028;-90
2021/08/24 01:02:25;;;;;;;2.58;1.58;;;15.80;99.90;;;;;;5056568;28;20040;-87
2021/08/24 01:04:53;;;;;;;3.10;1.45;;;15.80;99.90;;;;;;5056852;28;20035;-88
2021/08/24 01:07:34;;;;;;;4.07;1.45;;;15.80;99.90;;;;;;5055394;28;20097;-87
2021/08/24 01:10:07;;;;;;;3.55;1.42;;;15.80;99.90;;;;;;5055675;28;20464;-88
2021/08/24 01:12:46;;;;;;;2.28;1.30;;;15.70;99.90;;;;;;5040556;28;20016;-89
2021/08/24 01:15:46;;;;;;;1.55;0.98;;;15.70;99.90;;;;;;5056570;28;20021;-88
2021/08/24 01:18:15;;;;;;;4.22;1.48;;;15.70;99.90;;;;;;5056697;28;20060;-87
2021/08/24 01:21:08;;;;;;;2.25;1.40;;;15.60;99.90;;;;;;5056404;28;20123;-87
2021/08/24 01:24:09;;;;;;;2.55;1.20;;;15.60;99.90;;;;;;5044036;28;20468;-88
2021/08/24 01:26:46;;;;;;;2.75;1.50;;;15.60;99.90;;;;;;5039130;28;20411;-88
2021/08/24 01:29:47;;;;;;;3.10;1.40;;;15.60;99.90;;;;;;5054839;28;20024;-87
2021/08/24 01:32:31;;;;;;;3.50;2.25;;;15.50;99.90;;;;;;5054948;28;20025;-88
2021/08/24 01:35:42;;;;;;;3.72;1.55;;;15.50;99.90;;;;;;5055096;28;20431;-88
2021/08/24 01:38:25;;;;;;;2.47;1.48;;;15.50;99.90;;;;;;5055896;28;20475;-88
2021/08/24 01:41:11;;;;;;;4.07;1.98;;;15.40;99.90;;;;;;5073957;28;20055;-88
2021/08/24 01:43:51;;;;;;;2.00;1.38;;;15.40;99.90;;;;;;5056152;28;20111;-88
2021/08/24 01:47:00;;;;;;;2.80;1.70;;;15.40;99.90;;;;;;5052332;28;20057;-88
2021/08/24 01:49:47;;;;;;;3.75;1.90;;;15.30;99.90;;;;;;5039701;28;20041;-88
2021/08/24 01:52:19;;;;;;;3.13;1.85;;;15.30;99.90;;;;;;5052010;28;20457;-88
2021/08/24 01:54:51;;;;;;;2.95;1.60;;;15.30;99.90;;;;;;5052322;28;20024;-88
2021/08/24 01:57:30;;;;;;;3.15;1.90;;;15.20;99.90;;;;;;5052953;28;20072;-89
2021/08/24 02:00:02;;;;;;;2.50;1.50;;;15.20;99.90;;;;;;5053025;28;20412;-88
2021/08/24 02:02:36;;;;;;;3.65;1.98;;;15.20;99.90;;;;;;5052095;28;20082;-88
2021/08/24 02:05:15;;;;;;;;;;;15.20;99.90;;;;;;5052475;28;20040;-89
2021/08/24 02:07:42;;;;;;;3.33;1.50;;;15.10;99.90;;;;;;5052761;28;19909;-88
2021/08/24 02:10:22;;;;;;;3.58;1.60;;;15.10;99.90;;;;;;5052749;28;20053;-88
2021/08/24 02:12:50;;;;;;;2.80;1.45;;;15.10;99.90;;;;;;5052829;28;20508;-88
2021/08/24 02:15:20;;;;;;;4.00;1.50;;;15.10;99.90;;;;;;5052813;28;20040;-89
2021/08/24 02:17:47;;;;;;;4.53;2.35;;;15.10;99.90;;;;;;5054081;28;20033;-88
2021/08/24 02:20:23;;;;;;;3.95;2.20;;;15.10;99.90;;;;;;5053912;28;20055;-89
2021/08/24 02:22:54;;;;;;;5.25;1.92;;;15.00;99.90;;;;;;5052625;28;20017;-88
2021/08/24 02:25:26;;;;;;;5.50;2.35;;;15.00;99.90;;;;;;5052454;28;20040;-89
2021/08/24 02:28:12;;;;;;;3.17;1.60;;;15.00;99.90;;;;;;5052449;28;20027;-88
2021/08/24 02:30:44;;;;;;;5.53;2.10;;;15.00;99.90;;;;;;5052448;28;20120;-89
2021/08/24 02:33:11;;;;;;;3.78;1.85;;;15.00;99.90;;;;;;5052251;28;20040;-88
2021/08/24 02:35:43;;;;;;;4.35;2.05;;;15.00;99.90;;;;;;5052308;28;20035;-89
2021/08/24 02:38:23;;;;;;;4.07;2.05;;;15.00;99.90;;;;;;5053209;28;20031;-88
2021/08/24 02:40:58;;;;;;;4.80;2.33;;;15.00;99.90;;;;;;5052973;28;20033;-89
2021/08/24 02:43:33;;;;;;;4.03;2.10;;;15.00;99.90;;;;;;5052491;28;20048;-89
2021/08/24 02:46:06;;;;;;;4.72;2.25;;;15.00;99.90;;;;;;5051816;28;20563;-88
2021/08/24 02:48:35;;;;;;;4.60;2.28;;;15.00;99.90;;;;;;5053957;28;20032;-87
2021/08/24 02:51:01;;;;;;;5.60;2.67;;;14.90;99.90;;;;;;5052325;28;20025;-88
2021/08/24 02:53:28;;;;;;;6.55;2.55;;;14.90;99.90;;;;;;5051922;28;20021;-88
2021/08/24 02:55:54;;;;;;;4.88;2.42;;;15.00;99.90;;;;;;5052121;28;20043;-89
2021/08/24 02:58:21;;;;;;;5.45;2.42;;;15.00;99.90;;;;;;5052103;28;20025;-88
2021/08/24 03:00:47;;;;;;;5.07;2.40;;;15.00;99.90;;;;;;5052260;28;20025;-88
2021/08/24 03:03:15;;;;;;;3.67;2.20;;;14.90;99.90;;;;;;5051848;28;20044;-89
2021/08/24 03:05:41;;;;;;;4.88;2.25;;;14.90;99.90;;;;;;5052218;28;20043;-89
2021/08/24 03:08:09;;;;;;;4.72;2.08;;;14.90;99.90;;;;;;5052159;28;20025;-88
2021/08/24 03:10:38;;;;;;;3.65;2.10;;;14.90;99.90;;;;;;5051984;28;20021;-88
2021/08/24 03:13:30;;;;;;;4.35;2.20;;;14.80;99.90;;;;;;5053031;28;20035;-87
2021/08/24 03:16:10;;;;;;;3.78;2.38;;;14.80;99.90;;;;;;5052513;28;20496;-87
2021/08/24 03:18:41;;;;;;;4.55;2.35;;;14.80;99.90;;;;;;5055985;28;20040;-88
2021/08/24 03:21:12;;;;;;;4.35;2.58;;;14.80;99.90;;;;;;5056146;28;20047;-88
2021/08/24 03:23:42;;;;;;;4.10;2.50;;;14.70;99.90;;;;;;5055967;28;20459;-88
2021/08/24 03:26:09;;;;;;;3.63;2.03;;;14.70;99.90;;;;;;5055884;28;20029;-89
2021/08/24 03:28:38;;;;;;;4.28;2.55;;;14.70;99.90;;;;;;5055824;28;20473;-89
2021/08/24 03:31:04;;;;;;;4.97;2.97;;;14.70;99.90;;;;;;5055369;28;20025;-88
2021/08/24 03:33:29;;;;;;;5.50;2.63;;;14.70;99.90;;;;;;5055269;28;20074;-88
2021/08/24 03:35:55;;;;;;;4.70;2.60;;;14.60;99.90;;;;;;5056650;28;20063;-89
2021/08/24 03:38:21;;;;;;;6.18;2.50;;;14.60;99.90;;;;;;5055609;28;20044;-89
2021/08/24 03:40:47;;;;;;;4.78;2.78;;;14.60;99.90;;;;;;5055608;28;20017;-89
2021/08/24 03:43:13;;;;;;;4.63;2.75;;;14.60;99.90;;;;;;5055537;28;20025;-88
2021/08/24 03:45:39;;;;;;;5.00;2.55;;;14.60;99.90;;;;;;5055082;28;20045;-88
2021/08/24 03:48:05;;;;;;;4.25;2.60;;;14.60;99.90;;;;;;5056540;28;20029;-88
2021/08/24 03:50:31;;;;;;;4.63;2.28;;;14.60;99.90;;;;;;5055448;28;20028;-88
2021/08/24 03:52:57;;;;;;;4.20;2.35;;;14.60;99.90;;;;;;5056606;28;20021;-88
2021/08/24 03:55:23;;;;;;;4.20;2.78;;;14.60;99.90;;;;;;5055456;28;20358;-89
2021/08/24 03:57:49;;;;;;;4.45;2.40;;;14.60;99.90;;;;;;5055120;28;20120;-88
2021/08/24 04:00:15;;;;;;;5.10;2.92;;;14.60;99.90;;;;;;5054761;28;20021;-89
2021/08/24 04:02:41;;;;;;;4.97;2.80;;;14.60;99.90;;;;;;5056335;28;20100;-89
2021/08/24 04:05:09;;;;;;;4.90;3.20;;;14.60;99.90;;;;;;5054286;28;20033;-88
2021/08/24 04:07:35;;;;;;;5.57;2.90;;;14.60;99.90;;;;;;5055678;28;20055;-87
2021/08/24 04:10:00;;;;;;;7.03;3.13;;;14.60;99.90;;;;;;5055649;28;20049;-89
2021/08/24 04:12:26;;;;;;;5.10;3.30;;;14.60;99.90;;;;;;5054343;28;20056;-88
2021/08/24 04:14:52;;;;;;;5.70;3.00;;;14.60;99.90;;;;;;5053912;28;20029;-87
2021/08/24 04:17:18;;;;;;;4.93;3.08;;;14.60;99.90;;;;;;5053847;28;20024;-88
2021/08/24 04:19:44;;;;;;;4.45;2.97;;;14.60;99.90;;;;;;5054104;28;20025;-88
2021/08/24 04:22:16;;;;;;;4.05;2.70;;;14.60;99.90;;;;;;5053962;28;20064;-88
2021/08/24 04:24:42;;;;;;;4.55;3.17;;;14.60;99.90;;;;;;5054668;28;20052;-89
2021/08/24 04:27:08;;;;;;;7.22;4.32;;;14.50;99.90;;;;;;5053984;28;20060;-88
2021/08/24 04:29:33;;;;;;;5.88;3.13;;;14.50;99.90;;;;;;5053903;28;20025;-89
2021/08/24 04:32:01;;;;;;;6.68;3.20;;;14.50;99.90;;;;;;5054445;28;20063;-87
2021/08/24 04:34:27;;;;;;;7.88;3.30;;;14.60;99.90;;;;;;5054626;28;20048;-89
2021/08/24 04:36:53;;;;;;;5.70;3.05;;;14.50;99.90;;;;;;5054386;28;20029;-88
2021/08/24 04:39:19;;;;;;;6.32;3.60;;;14.50;99.90;;;;;;5054311;28;20377;-88
2021/08/24 04:41:44;;;;;;;5.90;3.53;;;14.50;99.90;;;;;;5054413;28;20025;-89
2021/08/24 04:44:10;;;;;;;5.15;3.83;;;14.50;99.90;;;;;;5051976;28;20032;-89
2021/08/24 04:46:36;;;;;;;5.82;3.78;;;14.50;99.90;;;;;;5052252;28;20053;-88
2021/08/24 04:49:03;;;;;;;5.18;3.38;;;14.40;99.90;;;;;;5052351;28;20028;-87
2021/08/24 04:51:29;;;;;;;5.75;3.50;;;14.40;99.90;;;;;;5051343;28;20025;-87
2021/08/24 04:53:55;;;;;;;6.30;3.58;;;14.40;99.90;;;;;;5052219;28;20655;-87
2021/08/24 04:56:21;;;;;;;6.43;3.40;;;14.40;99.90;;;;;;5052213;28;20116;-87
2021/08/24 04:58:47;;;;;;;7.85;4.25;;;14.40;99.90;;;;;;5050497;28;20094;-86
2021/08/24 05:01:13;;;;;;;4.43;3.20;;;14.40;99.90;;;;;;5051658;28;20044;-87
2021/08/24 05:03:39;;;;;;;7.15;4.25;;;14.40;99.90;;;;;;5050590;28;20033;-87
2021/08/24 05:06:05;;;;;;;6.60;4.22;;;14.40;99.90;;;;;;5052450;28;20059;-87
2021/08/24 05:08:31;;;;;;;7.88;4.55;;;14.40;99.90;;;;;;5050601;28;20086;-87
2021/08/24 05:10:57;;;;;;;6.10;4.10;;;14.40;99.90;;;;;;5051102;28;20052;-87
2021/08/24 05:13:24;;;;;;;6.72;3.85;;;14.40;99.90;;;;;;5052068;28;20096;-86
2021/08/24 05:15:51;;;;;;;5.07;3.35;;;14.50;99.90;;;;;;5051798;28;20023;-87
2021/08/24 05:18:17;;;;;;;5.78;3.75;;;14.50;99.90;;;;;;5052737;28;20032;-88
2021/08/24 05:20:43;;;;;;;5.88;3.95;;;14.50;99.90;;;;;;5054509;28;20021;-88
2021/08/24 05:23:09;;;;;;;7.50;4.40;;;14.50;99.90;;;;;;5053545;28;20051;-87
2021/08/24 05:25:34;;;;;;;6.28;3.83;;;14.50;99.90;;;;;;5052597;28;20064;-87
2021/08/24 05:28:02;;;;;;;5.97;3.90;;;14.50;99.90;;;;;;5054992;28;20036;-88
2021/08/24 05:30:29;;;;;;;4.85;3.58;;;14.60;99.90;;;;;;5053303;28;20419;-88
2021/08/24 05:32:55;;;;;;;4.85;3.38;;;14.60;99.90;;;;;;5053181;28;20037;-88
2021/08/24 05:35:22;;;;;;;6.50;3.90;;;14.60;99.90;;;;;;5052658;28;20068;-88
2021/08/24 05:37:49;;;;;;;6.70;3.70;;;14.60;99.90;;;;;;5054841;28;20025;-86
2021/08/24 05:40:15;;;;;;;5.28;3.92;;;14.70;99.90;;;;;;5053346;28;20029;-88
2021/08/24 05:42:41;;;;;;;6.95;3.92;;;14.70;99.90;;;;;;5052801;28;20028;-89
2021/08/24 05:45:09;;;;;;;6.35;3.53;;;14.70;99.90;;;;;;5052915;28;20408;-89
2021/08/24 05:47:34;;;;;;;8.52;3.90;;;14.80;99.90;;;;;;5052873;28;20099;-87
2021/08/24 05:50:00;;;;;;;6.15;3.75;;;14.80;99.90;;;;;;5053442;28;20053;-89
2021/08/24 05:52:27;;;;;;;7.10;4.00;;;14.80;99.90;;;;;;5051424;28;20377;-89
2021/08/24 05:54:53;;;;;;;6.53;3.97;;;14.90;99.90;;;;;;5051911;28;20167;-89
2021/08/24 05:57:19;;;;;;;7.07;3.60;;;15.00;99.90;;;;;;5053041;28;20409;-89
2021/08/24 05:59:46;;;;;;;6.97;3.58;;;15.00;99.90;;;;;;5054339;28;20060;-88
2021/08/24 06:02:11;;;;;;;5.82;3.78;;;15.10;99.90;;;;;;5052278;28;20116;-87
2021/08/24 06:04:37;;;;;;;8.10;4.28;;;15.10;99.90;;;;;;5053943;28;20564;-87
2021/08/24 06:07:04;;;;;;;5.82;3.88;;;15.10;99.90;;;;;;5052962;28;20114;-87
2021/08/24 06:09:30;;;;;;;9.00;4.60;;;15.20;99.90;;;;;;5036231;28;20029;-88
2021/08/24 06:11:56;;;;;;;6.65;3.53;;;15.20;99.90;;;;;;5052553;28;20079;-87
2021/08/24 06:14:23;;;;;;;6.28;3.95;;;15.30;99.90;;;;;;5052718;28;20060;-88
2021/08/24 06:16:55;;;;;;;4.80;3.65;;;15.30;99.90;;;;;;5052926;28;20027;-88
2021/08/24 06:19:21;;;;;;;5.50;3.58;;;15.40;99.90;;;;;;5052696;28;20021;-88
2021/08/24 06:21:47;;;;;;;7.20;3.50;;;15.50;99.90;;;;;;5052398;28;20025;-88
2021/08/24 06:24:13;;;;;;;7.75;3.67;;;15.50;99.90;;;;;;5052695;28;20013;-88
2021/08/24 06:26:38;;;;;;;6.05;3.92;;;15.50;99.90;;;;;;5052936;28;20484;-87
2021/08/24 06:29:05;;;;;;;5.50;3.63;;;15.60;99.90;;;;;;5054310;28;20040;-87
2021/08/24 06:31:32;;;;;;;6.63;3.90;;;15.70;99.90;;;;;;5052524;28;20054;-87
2021/08/24 06:33:59;;;;;;;6.07;3.40;;;15.60;99.90;;;;;;5052546;28;20493;-87
2021/08/24 06:36:26;;;;;;;6.13;3.30;;;15.70;99.90;;;;;;5052242;28;20119;-88
2021/08/24 06:38:52;;;;;;;5.15;3.20;;;15.80;99.90;;;;;;5053928;28;20025;-88
2021/08/24 06:41:19;;;;;;;5.00;2.97;;;15.80;99.90;;;;;;5053957;28;20151;-87
2021/08/24 06:43:45;;;;;;;5.57;3.40;;;15.90;99.90;;;;;;5052296;28;20021;-87
2021/08/24 06:46:12;;;;;;;6.00;3.33;;;16.00;99.90;;;;;;5052039;28;20064;-87
2021/08/24 06:48:38;;;;;;;6.88;3.72;;;16.00;99.90;;;;;;5058820;28;20036;-85
2021/08/24 06:51:05;;;;;;;6.38;4.05;;;16.10;99.90;;;;;;5058349;28;20473;-86
2021/08/24 06:53:31;;;;;;;7.15;3.80;;;16.10;99.90;;;;;;5058293;28;20025;-86
2021/08/24 06:56:01;;;;;;;6.20;3.50;;;16.10;99.90;;;;;;5058500;28;20025;-86
2021/08/24 06:58:26;;;;;;;6.10;3.85;;;16.20;99.90;;;;;;5058400;28;20108;-85
2021/08/24 07:00:52;;;;;;;7.50;3.67;;;16.30;99.90;;;;;;5058210;28;20057;-87
2021/08/24 07:03:18;;;;;;;6.75;4.45;;;16.30;99.90;;;;;;5059827;28;20021;-87
2021/08/24 07:05:49;;;;;;;5.93;3.58;;;16.40;99.90;;;;;;5058579;28;20025;-86
2021/08/24 07:08:15;;;;;;;7.60;4.60;;;16.40;99.90;;;;;;5058570;28;20048;-86
2021/08/24 07:10:41;;;;;;;5.10;3.42;;;16.50;99.90;;;;;;5058378;28;20079;-86
2021/08/24 07:13:08;;;;;;;5.72;3.72;;;16.50;99.90;;;;;;5058621;28;20099;-87
2021/08/24 07:15:36;;;;;;;7.10;4.10;;;16.50;99.90;;;;;;5058319;28;20029;-87
2021/08/24 07:18:03;;;;;;;5.90;3.30;;;16.50;99.90;;;;;;5058402;28;20025;-88
2021/08/24 07:20:29;;;;;;;4.47;2.80;;;16.60;99.90;;;;;;5058283;28;20447;-87
2021/08/24 07:23:00;;;;;;;5.57;3.08;;;16.70;99.90;;;;;;5058680;28;20021;-87
2021/08/24 07:25:30;;;;;;;4.47;2.90;;;16.80;99.90;;;;;;5059324;28;20025;-88
2021/08/24 07:27:57;;;;;;;7.60;3.78;;;16.80;99.90;;;;;;5059531;28;20025;-88
2021/08/24 07:30:25;;;;;;;7.03;3.50;;;16.80;99.90;;;;;;5058231;28;20376;-87
2021/08/24 07:32:52;;;;;;;4.40;3.00;;;16.90;99.90;;;;;;5058149;28;20036;-87
2021/08/24 07:35:20;;;;;;;5.10;3.55;;;16.90;99.90;;;;;;5059714;28;20078;-87
2021/08/24 07:37:54;;;;;;;4.22;3.22;;;17.00;99.90;;;;;;5058330;28;20495;-85
2021/08/24 07:40:23;;;;;;;;;;;17.10;99.90;;;;;;5058583;28;20501;-86
2021/08/24 07:42:52;;;;;;;6.47;4.28;;;17.00;99.90;;;;;;5058180;28;19905;-87
2021/08/24 07:45:41;;;;;;;3.90;2.97;;;17.10;99.90;;;;;;5067418;28;20097;-87
2021/08/24 07:48:14;;;;;;;4.27;3.07;;;17.10;99.90;;;;;;5061408;28;20031;-87
2021/08/24 07:50:50;;;;;;;4.43;2.78;;;17.20;99.90;;;;;;5060767;28;20270;-88
2021/08/24 07:53:19;;;;;;;5.45;2.80;;;17.20;99.90;;;;;;5061585;28;20531;-87
2021/08/24 07:55:52;;;;;;;3.97;2.80;;;17.40;99.90;;;;;;5061352;28;20025;-87
2021/08/24 07:58:21;;;;;;;4.68;3.40;;;17.40;99.90;;;;;;5059932;28;20472;-86
2021/08/24 08:00:50;;;;;;;4.65;3.13;;;17.40;99.90;;;;;;5058377;28;20017;-87
2021/08/24 08:03:19;;;;;;;3.78;2.78;;;17.50;99.90;;;;;;5057743;28;20024;-87
2021/08/24 08:05:46;;;;;;;6.28;2.60;;;17.50;99.90;;;;;;5074825;28;20065;-86
2021/08/24 08:08:15;;;;;;;4.25;2.65;;;17.60;99.90;;;;;;5075255;28;20028;-87
2021/08/24 08:10:41;;;;;;;3.83;2.25;;;17.70;99.90;;;;;;5057588;28;20020;-86
2021/08/24 08:13:07;;;;;;;4.28;2.63;;;17.70;99.90;;;;;;5057326;28;20055;-86
2021/08/24 08:15:38;;;;;;;6.80;3.35;;;17.80;99.90;;;;;;5057081;28;20029;-87
2021/08/24 08:18:12;;;;;;;5.72;2.83;;;17.80;99.90;;;;;;5056982;28;20119;-86
2021/08/24 08:20:44;;;;;;;5.10;2.60;;;17.90;99.90;;;;;;5056861;28;20017;-87
2021/08/24 08:23:11;;;;;;;4.28;2.35;;;18.00;99.90;;;;;;5056260;28;20035;-87
2021/08/24 08:25:42;;;;;;;4.13;2.50;;;18.10;99.90;;;;;;5074764;28;20039;-87
2021/08/24 08:28:12;;;;;;;4.97;2.50;;;18.10;99.90;;;;;;5057026;28;20048;-85
2021/08/24 08:30:41;;;;;;;4.97;3.03;;;18.20;99.90;;;;;;5055773;28;20032;-85
2021/08/24 08:33:07;;;;;;;5.30;2.47;;;18.20;99.90;;;;;;5054546;28;20039;-86
2021/08/24 08:35:33;;;;;;;3.72;2.50;;;18.30;99.90;;;;;;5055122;28;20040;-85
2021/08/24 08:38:08;;;;;;;3.75;1.85;;;18.40;99.90;;;;;;5073588;28;20032;-85
2021/08/24 08:41:29;;;;;;;3.83;2.30;;;18.50;99.90;;;;;;5055375;28;20057;-86
2021/08/24 08:44:25;;;;;;;4.25;1.95;;;18.50;99.90;;;;;;5028183;28;20067;-86
2021/08/24 08:47:27;;;;;;;3.65;2.28;;;18.60;99.90;;;;;;5031578;28;20111;-86
2021/08/24 08:50:31;;;;;;;4.80;2.58;;;18.70;99.90;;;;;;5026007;28;20370;-85
2021/08/24 08:53:33;;;;;;;;;;;18.80;99.90;;;;;;5033396;28;20072;-87
2021/08/24 08:56:15;;;;;;;4.68;2.33;;;18.80;99.90;;;;;;5033370;28;19905;-86
2021/08/24 08:58:57;;;;;;;3.50;2.25;;;19.00;99.90;;;;;;5032829;28;20026;-86
2021/08/24 09:01:48;;;;;;;4.55;2.10;;;19.00;99.90;;;;;;5028792;28;20036;-86
2021/08/24 09:04:18;;;;;;;4.38;2.10;;;19.20;99.90;;;;;;5031498;28;20029;-86
2021/08/24 09:06:50;;;;;;;3.97;2.20;;;19.20;99.90;;;;;;5031999;28;20061;-86
2021/08/24 09:09:20;;;;;;;5.03;2.60;;;19.30;99.90;;;;;;5032046;28;20476;-87
2021/08/24 09:11:53;;;;;;;2.80;1.90;;;19.50;99.90;;;;;;5030393;28;20498;-85
2021/08/24 09:14:38;;;;;;;4.60;1.80;;;19.50;99.90;;;;;;5031970;28;20500;-85
2021/08/24 09:17:46;;;;;;;4.35;1.90;;;19.60;99.90;;;;;;5050396;28;20472;-85
2021/08/24 09:20:31;;;;;;;4.32;1.90;;;19.70;99.90;;;;;;5051208;28;20045;-86
2021/08/24 09:23:04;;;;;;;3.72;1.80;;;19.80;99.90;;;;;;5050915;28;20406;-86
2021/08/24 09:25:49;;;;;;;;;;;20.00;99.90;;;;;;5032122;28;20458;-85
2021/08/24 09:28:28;;;;;;;4.63;1.95;;;20.10;99.90;;;;;;5031356;28;20320;-86
2021/08/24 09:30:58;;;;;;;3.92;1.73;;;20.30;99.90;;;;;;5031563;28;20061;-85
2021/08/24 09:33:28;;;;;;;3.88;1.85;;;20.50;99.90;;;;;;5032956;28;20022;-87
2021/08/24 09:36:00;;;;;;;3.80;2.05;;;20.60;99.90;;;;;;5031359;28;20092;-85
2021/08/24 09:38:30;;;;;;;3.08;1.90;;;20.80;99.90;;;;;;5032817;28;20147;-86
2021/08/24 09:41:19;;;;;;;3.63;1.85;;;20.90;99.90;;;;;;5030778;28;20021;-87
2021/08/24 09:43:48;;;;;;;2.97;1.77;;;21.60;99.90;;;;;;5030752;28;20596;-87
2021/08/24 09:46:20;;;;;;;2.67;1.60;;;22.40;99.90;;;;;;5030074;28;20088;-87
2021/08/24 09:49:04;;;;;;;3.50;1.60;;;23.50;99.90;;;;;;5029450;28;20029;-87
2021/08/24 09:51:54;;;;;;;3.35;1.70;;;24.80;99.90;;;;;;5031091;28;20833;-87
2021/08/24 09:54:20;;;;;;;4.30;1.75;;;25.50;99.90;;;;;;5051116;28;20024;-87
2021/08/24 09:57:01;;;;;;;3.00;1.60;;;25.20;99.90;;;;;;5050323;28;20469;-86
2021/08/24 10:00:09;;;;;;;4.45;1.92;;;24.70;99.90;;;;;;5049254;28;20043;-87
2021/08/24 10:02:45;;;;;;;4.28;1.70;;;24.70;99.90;;;;;;4992279;28;20490;-86
2021/08/24 10:05:20;;;;;;;2.70;1.52;;;24.70;99.90;;;;;;5043796;28;20069;-86
2021/08/24 10:07:52;;;;;;;3.75;1.67;;;25.00;99.90;;;;;;5049751;28;20753;-87
2021/08/24 10:10:27;;;;;;;2.05;1.52;;;25.00;99.90;;;;;;5049875;28;20496;-86
2021/08/24 10:12:57;;;;;;;3.45;1.25;;;25.30;99.90;;;;;;5049124;28;20489;-87
2021/08/24 10:15:36;;;;;;;3.50;1.60;;;24.90;99.90;;;;;;5050863;28;20412;-87
2021/08/24 10:18:07;;;;;;;2.60;1.42;;;24.60;99.90;;;;;;5048863;28;20021;-86
2021/08/24 10:21:24;;;;;;;4.18;1.75;;;24.50;99.90;;;;;;5047133;28;20140;-87
2021/08/24 10:23:59;;;;;;;3.03;1.65;;;24.20;99.90;;;;;;5007890;28;20491;-87
2021/08/24 10:26:37;;;;;;;2.55;1.63;;;24.70;99.90;;;;;;5044791;28;20032;-87
2021/08/24 10:29:14;;;;;;;3.55;1.80;;;25.10;99.90;;;;;;5050649;28;20079;-87
2021/08/24 10:31:55;;;;;;;3.35;1.77;;;25.70;99.90;;;;;;5057110;28;20074;-89
2021/08/24 10:34:44;;;;;;;2.92;1.70;;;26.50;99.90;;;;;;5050263;28;20535;-87
2021/08/24 10:37:37;;;;;;;3.15;1.63;;;26.60;99.90;;;;;;5049361;28;20021;-87
2021/08/24 10:40:09;;;;;;;4.13;2.00;;;25.90;99.90;;;;;;5050406;28;20017;-87
2021/08/24 10:42:57;;;;;;;2.87;1.80;;;25.70;99.90;;;;;;5052228;28;20021;-87
2021/08/24 10:45:39;;;;;;;3.03;1.30;;;26.00;99.90;;;;;;5051336;28;20072;-87
2021/08/24 10:48:13;;;;;;;2.22;1.38;;;26.00;99.90;;;;;;5051455;28;20041;-86
2021/08/24 10:51:08;;;;;;;2.63;1.38;;;26.30;99.90;;;;;;5051031;28;20043;-86
2021/08/24 10:54:05;;;;;;;3.47;1.55;;;26.00;99.90;;;;;;5049893;28;20029;-86
2021/08/24 10:57:01;;;;;;;4.25;1.50;;;26.40;99.90;;;;;;5050485;28;20074;-86
2021/08/24 11:00:05;;;;;;;3.10;1.50;;;26.30;99.90;;;;;;5048734;28;20066;-87
2021/08/24 11:02:56;;;;;;;2.72;1.20;;;25.60;99.90;;;;;;4969173;28;20031;-88
2021/08/24 11:05:32;;;;;;;3.40;1.35;;;25.30;99.90;;;;;;5045246;28;20501;-88
2021/08/24 11:08:16;;;;;;;4.05;1.58;;;25.40;99.90;;;;;;5031185;28;20032;-87
2021/08/24 11:11:10;;;;;;;2.75;1.30;;;26.10;99.90;;;;;;5051678;28;20397;-87
2021/08/24 11:14:15;;;;;;;2.03;1.20;;;27.10;99.90;;;;;;5051123;28;20025;-88
2021/08/24 11:16:52;;;;;;;3.40;1.60;;;28.00;99.10;;;;;;5034012;28;20045;-88
2021/08/24 11:19:34;;;;;;;2.35;1.42;;;28.60;97.50;;;;;;5048350;28;20033;-88
2021/08/24 11:22:28;;;;;;;2.55;1.50;;;28.60;96.10;;;;;;5049320;28;20040;-88
2021/08/24 11:25:08;;;;;;;2.05;1.23;;;28.90;95.50;;;;;;5019885;28;20481;-87
2021/08/24 11:27:56;;;;;;;4.13;1.40;;;29.30;94.80;;;;;;5049086;28;20033;-87
2021/08/24 11:30:41;;;;;;;2.97;1.40;;;29.30;94.00;;;;;;5048997;28;20025;-87
2021/08/24 11:33:17;;;;;;;2.05;1.25;;;29.50;93.50;;;;;;5049109;28;20040;-86
2021/08/24 11:35:55;;;;;;;2.58;1.20;;;29.70;93.20;;;;;;5053533;28;20106;-87
2021/08/24 11:38:34;;;;;;;2.63;1.35;;;30.30;92.10;;;;;;5050287;28;20050;-87
2021/08/24 11:41:11;;;;;;;2.72;1.33;;;30.40;91.10;;;;;;5050555;28;20052;-88
2021/08/24 11:43:49;;;;;;;1.88;1.20;;;30.20;91.50;;;;;;5052688;28;20025;-89
2021/08/24 11:46:27;;;;;;;1.98;1.27;;;30.50;90.60;;;;;;5067776;28;20060;-87
2021/08/24 11:49:15;;;;;;;2.40;1.20;;;30.70;90.10;;;;;;5058334;28;20066;-91
2021/08/24 11:51:51;;;;;;;3.05;1.60;;;30.90;87.90;;;;;;5058155;28;20030;-88
2021/08/24 11:55:02;;;;;;;2.53;1.25;;;30.70;86.10;;;;;;5054989;28;20013;-89
2021/08/24 11:57:36;;;;;;;2.38;1.20;;;30.80;84.40;;;;;;5045140;28;20048;-89
2021/08/24 12:00:13;;;;;;;2.13;1.42;;;31.00;82.80;;;;;;5055666;28;20032;-87
2021/08/24 12:02:50;;;;;;;2.45;1.45;;;31.00;81.90;;;;;;5057173;28;20388;-89
2021/08/24 12:05:23;;;;;;;2.25;1.35;;;31.00;81.00;;;;;;5037472;28;20036;-89
2021/08/24 12:08:10;;;;;;;;;;;31.00;80.60;;;;;;5055633;28;20847;-89
2021/08/24 12:11:04;;;;;;;2.75;1.13;;;30.90;79.80;;;;;;5054877;28;19905;-89
2021/08/24 12:13:37;;;;;;;2.92;1.40;;;31.20;79.80;;;;;;5057850;28;20055;-87
2021/08/24 12:16:29;;;;;;;2.28;1.48;;;31.20;79.10;;;;;;5058026;28;20483;-86
2021/08/24 12:19:22;;;;;;;2.22;1.20;;;31.40;78.10;;;;;;5058258;28;20065;-89
2021/08/24 12:21:55;;;;;;;2.55;1.40;;;31.30;76.80;;;;;;5057879;28;20080;-87
2021/08/24 12:24:23;;;;;;;2.03;1.42;;;31.20;76.50;;;;;;5058163;28;20487;-88
2021/08/24 12:27:15;;;;;;;2.83;1.50;;;31.00;77.00;;;;;;5075718;28;20032;-87
2021/08/24 12:29:43;;;;;;;2.90;1.30;;;30.90;76.40;;;;;;5015197;28;20175;-87
2021/08/24 12:32:32;;;;;;;2.53;1.60;;;31.20;76.40;;;;;;5056859;28;20503;-86
2021/08/24 12:35:16;;;;;;;2.80;1.70;;;31.60;75.30;;;;;;5008400;28;20040;-87
2021/08/24 12:37:51;;;;;;;2.45;1.40;;;32.00;74.20;;;;;;5058294;28;20017;-87
2021/08/24 12:40:52;;;;;;;3.20;1.73;;;32.50;73.60;;;;;;5057725;28;20024;-88
2021/08/24 12:43:18;;;;;;;1.92;1.35;;;32.70;72.00;;;;;;5057819;28;20032;-88
2021/08/24 12:45:47;;;;;;;2.85;1.80;;;32.90;72.90;;;;;;5053344;28;20053;-87
2021/08/24 12:48:24;;;;;;;3.00;1.88;;;33.00;72.30;;;;;;5054339;28;20037;-88
2021/08/24 12:51:04;;;;;;;2.28;1.40;;;33.00;71.60;;;;;;5054253;28;20033;-87
2021/08/24 12:53:33;;;;;;;2.67;1.30;;;33.00;71.50;;;;;;5054189;28;20461;-87
2021/08/24 12:56:07;;;;;;;2.33;1.38;;;33.00;71.40;;;;;;5054302;28;20028;-89
2021/08/24 12:58:52;;;;;;;2.95;1.60;;;33.40;70.90;;;;;;5054293;28;20021;-89
2021/08/24 13:01:23;;;;;;;3.78;1.95;;;33.50;68.90;;;;;;5054232;28;20055;-88
2021/08/24 13:04:14;;;;;;;3.05;1.58;;;33.00;68.90;;;;;;5053884;28;20036;-88
2021/08/24 13:06:45;;;;;;;3.10;1.70;;;32.50;68.30;;;;;;5055127;28;20111;-88
2021/08/24 13:09:39;;;;;;;2.58;1.55;;;32.10;68.60;;;;;;5053719;28;20041;-88
2021/08/24 13:12:15;;;;;;;2.85;1.60;;;31.60;68.90;;;;;;5053978;28;20539;-88
2021/08/24 13:15:02;;;;;;;2.58;1.70;;;31.50;68.70;;;;;;5054425;28;20032;-87
2021/08/24 13:17:39;;;;;;;2.47;1.42;;;31.50;68.80;;;;;;5054190;28;20411;-87
2021/08/24 13:20:38;;;;;;;2.50;1.70;;;31.40;68.60;;;;;;5053894;28;20047;-87
2021/08/24 13:23:05;;;;;;;2.60;1.63;;;31.00;68.70;;;;;;5037526;28;20465;-89